sensor_id;sensor_type;location;lat;lon;timestamp;P1;durP1;ratioP1;P2;durP2;ratioP2
29876;SDS011;16750;49.002;9.204;2022-08-01T00:00:57;3.20;;;1.92;;
29876;SDS011;16750;49.002;9.204;2022-08-01T00:03:23;3.17;;;1.77;;
29876;SDS011;16750;49.002;9.204;2022-08-01T00:05:48;3.33;;;1.75;;
29876;SDS011;16750;49.002;9.204;2022-08-01T00:08:13;4.20;;;1.90;;
29876;SDS011;16750;49.002;9.204;2022-08-01T00:10:39;3.97;;;1.63;;
29876;SDS011;16750;49.002;9.204;2022-08-01T00:13:04;3.75;;;1.90;;
29876;SDS011;16750;49.002;9.204;2022-08-01T00:15:30;3.22;;;1.95;;
29876;SDS011;16750;49.002;9.204;2022-08-01T00:17:55;3.72;;;1.90;;
29876;SDS011;16750;49.002;9.204;2022-08-01T00:20:21;2.97;;;1.80;;
29876;SDS011;16750;49.002;9.204;2022-08-01T00:22:46;3.80;;;1.70;;
29876;SDS011;16750;49.002;9.204;2022-08-01T00:25:12;3.72;;;1.85;;
29876;SDS011;16750;49.002;9.204;2022-08-01T00:27:37;3.33;;;1.75;;
29876;SDS011;16750;49.002;9.204;2022-08-01T00:30:03;3.30;;;1.73;;
29876;SDS011;16750;49.002;9.204;2022-08-01T00:32:30;2.80;;;1.70;;
29876;SDS011;16750;49.002;9.204;2022-08-01T00:34:56;4.32;;;1.90;;
29876;SDS011;16750;49.002;9.204;2022-08-01T00:37:21;3.90;;;1.80;;
29876;SDS011;16750;49.002;9.204;2022-08-01T00:39:47;3.17;;;1.80;;
29876;SDS011;16750;49.002;9.204;2022-08-01T00:42:12;3.28;;;1.80;;
29876;SDS011;16750;49.002;9.204;2022-08-01T00:44:38;4.63;;;1.98;;
29876;SDS011;16750;49.002;9.204;2022-08-01T00:47:05;5.85;;;1.65;;
29876;SDS011;16750;49.002;9.204;2022-08-01T00:49:31;4.78;;;1.88;;
29876;SDS011;16750;49.002;9.204;2022-08-01T00:51:57;3.55;;;2.10;;
29876;SDS011;16750;49.002;9.204;2022-08-01T00:54:24;3.20;;;1.92;;
29876;SDS011;16750;49.002;9.204;2022-08-01T00:56:50;4.20;;;1.92;;
29876;SDS011;16750;49.002;9.204;2022-08-01T00:59:16;7.43;;;2.08;;
29876;SDS011;16750;49.002;9.204;2022-08-01T01:01:43;3.88;;;1.80;;
29876;SDS011;16750;49.002;9.204;2022-08-01T01:04:08;3.00;;;1.85;;
29876;SDS011;16750;49.002;9.204;2022-08-01T01:12:32;3.78;;;2.28;;
29876;SDS011;16750;49.002;9.204;2022-08-01T01:15:04;3.13;;;1.80;;
29876;SDS011;16750;49.002;9.204;2022-08-01T01:17:41;4.07;;;1.98;;
29876;SDS011;16750;49.002;9.204;2022-08-01T01:20:34;3.70;;;2.05;;
29876;SDS011;16750;49.002;9.204;2022-08-01T01:23:10;4.45;;;2.20;;
29876;SDS011;16750;49.002;9.204;2022-08-01T01:25:51;2.55;;;1.80;;
29876;SDS011;16750;49.002;9.204;2022-08-01T01:28:32;3.35;;;1.90;;
29876;SDS011;16750;49.002;9.204;2022-08-01T01:31:00;2.97;;;1.80;;
29876;SDS011;16750;49.002;9.204;2022-08-01T01:33:30;4.25;;;2.00;;
29876;SDS011;16750;49.002;9.204;2022-08-01T01:35:59;5.00;;;2.20;;
29876;SDS011;16750;49.002;9.204;2022-08-01T01:38:33;3.38;;;1.90;;
29876;SDS011;16750;49.002;9.204;2022-08-01T01:41:02;2.70;;;1.83;;
29876;SDS011;16750;49.002;9.204;2022-08-01T01:43:30;4.82;;;2.05;;
29876;SDS011;16750;49.002;9.204;2022-08-01T01:45:57;3.10;;;1.88;;
29876;SDS011;16750;49.002;9.204;2022-08-01T01:48:25;3.92;;;2.00;;
29876;SDS011;16750;49.002;9.204;2022-08-01T01:50:52;3.95;;;1.83;;
29876;SDS011;16750;49.002;9.204;2022-08-01T01:53:19;4.53;;;2.20;;
29876;SDS011;16750;49.002;9.204;2022-08-01T01:55:47;2.88;;;2.00;;
29876;SDS011;16750;49.002;9.204;2022-08-01T01:58:15;3.35;;;2.15;;
29876;SDS011;16750;49.002;9.204;2022-08-01T02:00:42;2.95;;;2.10;;
29876;SDS011;16750;49.002;9.204;2022-08-01T02:03:11;4.15;;;2.17;;
29876;SDS011;16750;49.002;9.204;2022-08-01T02:05:39;4.20;;;2.05;;
29876;SDS011;16750;49.002;9.204;2022-08-01T02:08:07;3.47;;;2.05;;
29876;SDS011;16750;49.002;9.204;2022-08-01T02:10:35;3.55;;;2.10;;
29876;SDS011;16750;49.002;9.204;2022-08-01T02:13:04;4.45;;;2.17;;
29876;SDS011;16750;49.002;9.204;2022-08-01T02:15:31;3.83;;;2.00;;
29876;SDS011;16750;49.002;9.204;2022-08-01T02:17:59;4.13;;;2.17;;
29876;SDS011;16750;49.002;9.204;2022-08-01T02:20:27;3.28;;;2.20;;
29876;SDS011;16750;49.002;9.204;2022-08-01T02:23:16;3.85;;;2.38;;
29876;SDS011;16750;49.002;9.204;2022-08-01T02:25:45;3.58;;;2.17;;
29876;SDS011;16750;49.002;9.204;2022-08-01T02:28:15;3.08;;;2.10;;
29876;SDS011;16750;49.002;9.204;2022-08-01T02:30:48;3.33;;;2.15;;
29876;SDS011;16750;49.002;9.204;2022-08-01T02:33:16;3.72;;;2.30;;
29876;SDS011;16750;49.002;9.204;2022-08-01T02:35:44;4.80;;;2.42;;
29876;SDS011;16750;49.002;9.204;2022-08-01T02:38:14;3.53;;;2.15;;
29876;SDS011;16750;49.002;9.204;2022-08-01T02:40:41;3.65;;;2.10;;
29876;SDS011;16750;49.002;9.204;2022-08-01T02:43:11;5.70;;;2.30;;
29876;SDS011;16750;49.002;9.204;2022-08-01T02:45:39;3.08;;;1.90;;
29876;SDS011;16750;49.002;9.204;2022-08-01T02:48:13;5.03;;;1.90;;
29876;SDS011;16750;49.002;9.204;2022-08-01T02:50:42;3.97;;;2.20;;
29876;SDS011;16750;49.002;9.204;2022-08-01T02:53:09;3.47;;;2.10;;
29876;SDS011;16750;49.002;9.204;2022-08-01T02:55:40;3.35;;;2.00;;
29876;SDS011;16750;49.002;9.204;2022-08-01T02:58:08;3.22;;;2.05;;
29876;SDS011;16750;49.002;9.204;2022-08-01T03:00:35;3.17;;;1.95;;
29876;SDS011;16750;49.002;9.204;2022-08-01T03:03:02;4.07;;;2.20;;
29876;SDS011;16750;49.002;9.204;2022-08-01T03:05:30;4.07;;;2.10;;
29876;SDS011;16750;49.002;9.204;2022-08-01T03:07:57;4.20;;;2.05;;
29876;SDS011;16750;49.002;9.204;2022-08-01T03:10:26;4.63;;;2.10;;
29876;SDS011;16750;49.002;9.204;2022-08-01T03:12:53;3.75;;;2.30;;
29876;SDS011;16750;49.002;9.204;2022-08-01T03:15:19;3.97;;;2.50;;
29876;SDS011;16750;49.002;9.204;2022-08-01T03:17:47;2.65;;;2.00;;
29876;SDS011;16750;49.002;9.204;2022-08-01T03:20:16;3.85;;;2.30;;
29876;SDS011;16750;49.002;9.204;2022-08-01T03:22:44;4.70;;;2.10;;
29876;SDS011;16750;49.002;9.204;2022-08-01T03:25:10;3.05;;;2.03;;
29876;SDS011;16750;49.002;9.204;2022-08-01T03:27:39;3.08;;;2.20;;
29876;SDS011;16750;49.002;9.204;2022-08-01T03:30:07;3.70;;;2.10;;
29876;SDS011;16750;49.002;9.204;2022-08-01T03:32:32;5.50;;;2.50;;
29876;SDS011;16750;49.002;9.204;2022-08-01T03:34:58;4.15;;;2.22;;
29876;SDS011;16750;49.002;9.204;2022-08-01T03:37:25;4.03;;;2.40;;
29876;SDS011;16750;49.002;9.204;2022-08-01T03:42:42;3.88;;;2.60;;
29876;SDS011;16750;49.002;9.204;2022-08-01T03:45:11;2.92;;;2.10;;
29876;SDS011;16750;49.002;9.204;2022-08-01T03:47:44;4.75;;;2.50;;
29876;SDS011;16750;49.002;9.204;2022-08-01T03:50:12;3.63;;;2.13;;
29876;SDS011;16750;49.002;9.204;2022-08-01T03:52:39;3.67;;;2.33;;
29876;SDS011;16750;49.002;9.204;2022-08-01T03:55:08;3.53;;;2.20;;
29876;SDS011;16750;49.002;9.204;2022-08-01T03:57:36;3.65;;;2.45;;
29876;SDS011;16750;49.002;9.204;2022-08-01T04:00:03;3.75;;;2.20;;
29876;SDS011;16750;49.002;9.204;2022-08-01T04:02:39;3.35;;;2.20;;
29876;SDS011;16750;49.002;9.204;2022-08-01T04:05:06;4.75;;;2.42;;
29876;SDS011;16750;49.002;9.204;2022-08-01T04:07:32;3.42;;;2.30;;
29876;SDS011;16750;49.002;9.204;2022-08-01T04:10:04;5.00;;;2.50;;
29876;SDS011;16750;49.002;9.204;2022-08-01T04:12:30;5.50;;;2.15;;
29876;SDS011;16750;49.002;9.204;2022-08-01T04:14:55;3.85;;;2.30;;
29876;SDS011;16750;49.002;9.204;2022-08-01T04:17:21;8.38;;;2.53;;
29876;SDS011;16750;49.002;9.204;2022-08-01T04:19:46;4.40;;;2.25;;
29876;SDS011;16750;49.002;9.204;2022-08-01T04:22:13;4.90;;;2.08;;
29876;SDS011;16750;49.002;9.204;2022-08-01T04:24:40;3.80;;;2.17;;
29876;SDS011;16750;49.002;9.204;2022-08-01T04:27:11;3.38;;;1.75;;
29876;SDS011;16750;49.002;9.204;2022-08-01T04:29:39;5.75;;;2.30;;
29876;SDS011;16750;49.002;9.204;2022-08-01T04:32:07;4.18;;;2.30;;
29876;SDS011;16750;49.002;9.204;2022-08-01T04:34:37;4.95;;;2.42;;
29876;SDS011;16750;49.002;9.204;2022-08-01T04:37:05;2.88;;;1.92;;
29876;SDS011;16750;49.002;9.204;2022-08-01T04:39:34;5.28;;;2.25;;
29876;SDS011;16750;49.002;9.204;2022-08-01T04:42:02;4.50;;;1.85;;
29876;SDS011;16750;49.002;9.204;2022-08-01T04:44:29;5.63;;;2.40;;
29876;SDS011;16750;49.002;9.204;2022-08-01T04:46:58;5.40;;;2.10;;
29876;SDS011;16750;49.002;9.204;2022-08-01T04:49:25;4.10;;;2.38;;
29876;SDS011;16750;49.002;9.204;2022-08-01T04:51:53;5.78;;;2.55;;
29876;SDS011;16750;49.002;9.204;2022-08-01T04:54:23;6.07;;;2.15;;
29876;SDS011;16750;49.002;9.204;2022-08-01T04:56:49;5.32;;;2.20;;
29876;SDS011;16750;49.002;9.204;2022-08-01T04:59:15;6.03;;;2.40;;
29876;SDS011;16750;49.002;9.204;2022-08-01T05:01:59;4.20;;;2.20;;
29876;SDS011;16750;49.002;9.204;2022-08-01T05:04:24;5.60;;;2.80;;
29876;SDS011;16750;49.002;9.204;2022-08-01T05:06:50;6.45;;;2.58;;
29876;SDS011;16750;49.002;9.204;2022-08-01T05:09:15;3.83;;;2.05;;
29876;SDS011;16750;49.002;9.204;2022-08-01T05:11:40;4.20;;;2.20;;
29876;SDS011;16750;49.002;9.204;2022-08-01T05:14:06;5.68;;;2.05;;
29876;SDS011;16750;49.002;9.204;2022-08-01T05:16:31;5.03;;;2.00;;
29876;SDS011;16750;49.002;9.204;2022-08-01T05:18:57;4.85;;;2.33;;
29876;SDS011;16750;49.002;9.204;2022-08-01T05:21:22;8.70;;;2.92;;
29876;SDS011;16750;49.002;9.204;2022-08-01T05:23:47;9.32;;;2.92;;
29876;SDS011;16750;49.002;9.204;2022-08-01T05:26:14;7.60;;;2.97;;
29876;SDS011;16750;49.002;9.204;2022-08-01T05:28:39;8.80;;;2.60;;
29876;SDS011;16750;49.002;9.204;2022-08-01T05:31:05;8.15;;;2.53;;
29876;SDS011;16750;49.002;9.204;2022-08-01T05:33:30;10.45;;;3.40;;
29876;SDS011;16750;49.002;9.204;2022-08-01T05:35:55;8.00;;;2.72;;
29876;SDS011;16750;49.002;9.204;2022-08-01T05:38:21;7.28;;;2.65;;
29876;SDS011;16750;49.002;9.204;2022-08-01T05:40:46;10.50;;;2.78;;
29876;SDS011;16750;49.002;9.204;2022-08-01T05:43:12;9.27;;;2.42;;
29876;SDS011;16750;49.002;9.204;2022-08-01T05:45:37;7.68;;;2.28;;
29876;SDS011;16750;49.002;9.204;2022-08-01T05:48:02;3.92;;;1.80;;
29876;SDS011;16750;49.002;9.204;2022-08-01T05:50:28;4.30;;;1.80;;
29876;SDS011;16750;49.002;9.204;2022-08-01T05:52:53;4.22;;;1.83;;
29876;SDS011;16750;49.002;9.204;2022-08-01T05:55:19;4.95;;;1.98;;
29876;SDS011;16750;49.002;9.204;2022-08-01T05:57:44;3.17;;;1.65;;
29876;SDS011;16750;49.002;9.204;2022-08-01T06:00:09;6.57;;;2.28;;
29876;SDS011;16750;49.002;9.204;2022-08-01T06:02:39;4.65;;;1.92;;
29876;SDS011;16750;49.002;9.204;2022-08-01T06:05:07;4.78;;;1.80;;
29876;SDS011;16750;49.002;9.204;2022-08-01T06:07:33;5.20;;;1.90;;
29876;SDS011;16750;49.002;9.204;2022-08-01T06:09:58;6.15;;;2.05;;
29876;SDS011;16750;49.002;9.204;2022-08-01T06:12:24;5.07;;;2.08;;
29876;SDS011;16750;49.002;9.204;2022-08-01T06:14:49;6.85;;;1.60;;
29876;SDS011;16750;49.002;9.204;2022-08-01T06:17:14;5.25;;;1.83;;
29876;SDS011;16750;49.002;9.204;2022-08-01T06:19:40;4.53;;;1.95;;
29876;SDS011;16750;49.002;9.204;2022-08-01T06:22:05;4.13;;;1.80;;
29876;SDS011;16750;49.002;9.204;2022-08-01T06:24:31;3.97;;;1.50;;
29876;SDS011;16750;49.002;9.204;2022-08-01T06:26:56;2.50;;;1.35;;
29876;SDS011;16750;49.002;9.204;2022-08-01T06:29:21;2.22;;;1.27;;
29876;SDS011;16750;49.002;9.204;2022-08-01T06:31:47;1.58;;;1.00;;
29876;SDS011;16750;49.002;9.204;2022-08-01T06:34:12;4.07;;;1.38;;
29876;SDS011;16750;49.002;9.204;2022-08-01T06:36:38;3.70;;;1.33;;
29876;SDS011;16750;49.002;9.204;2022-08-01T06:39:03;2.80;;;1.30;;
29876;SDS011;16750;49.002;9.204;2022-08-01T06:41:28;2.10;;;1.20;;
29876;SDS011;16750;49.002;9.204;2022-08-01T06:43:54;3.38;;;1.08;;
29876;SDS011;16750;49.002;9.204;2022-08-01T06:46:19;3.33;;;1.00;;
29876;SDS011;16750;49.002;9.204;2022-08-01T06:48:45;3.42;;;1.20;;
29876;SDS011;16750;49.002;9.204;2022-08-01T06:51:10;2.53;;;1.00;;
29876;SDS011;16750;49.002;9.204;2022-08-01T06:53:41;2.95;;;1.17;;
29876;SDS011;16750;49.002;9.204;2022-08-01T06:56:07;2.03;;;0.90;;
29876;SDS011;16750;49.002;9.204;2022-08-01T06:58:33;2.05;;;1.00;;
29876;SDS011;16750;49.002;9.204;2022-08-01T07:00:59;2.17;;;1.20;;
29876;SDS011;16750;49.002;9.204;2022-08-01T07:03:25;2.22;;;0.93;;
29876;SDS011;16750;49.002;9.204;2022-08-01T07:05:51;2.15;;;1.08;;
29876;SDS011;16750;49.002;9.204;2022-08-01T07:08:16;2.17;;;1.00;;
29876;SDS011;16750;49.002;9.204;2022-08-01T07:10:42;2.80;;;1.20;;
29876;SDS011;16750;49.002;9.204;2022-08-01T07:13:08;2.63;;;1.00;;
29876;SDS011;16750;49.002;9.204;2022-08-01T07:15:33;4.20;;;1.50;;
29876;SDS011;16750;49.002;9.204;2022-08-01T07:17:59;1.80;;;0.95;;
29876;SDS011;16750;49.002;9.204;2022-08-01T07:20:28;3.00;;;1.30;;
29876;SDS011;16750;49.002;9.204;2022-08-01T07:22:54;2.45;;;0.90;;
29876;SDS011;16750;49.002;9.204;2022-08-01T07:25:19;2.05;;;1.05;;
29876;SDS011;16750;49.002;9.204;2022-08-01T07:27:45;1.40;;;0.90;;
29876;SDS011;16750;49.002;9.204;2022-08-01T07:30:11;4.28;;;1.05;;
29876;SDS011;16750;49.002;9.204;2022-08-01T07:32:36;4.22;;;1.00;;
29876;SDS011;16750;49.002;9.204;2022-08-01T07:35:02;1.45;;;0.90;;
29876;SDS011;16750;49.002;9.204;2022-08-01T07:37:28;1.70;;;1.05;;
29876;SDS011;16750;49.002;9.204;2022-08-01T07:39:53;1.85;;;1.23;;
29876;SDS011;16750;49.002;9.204;2022-08-01T07:42:19;2.97;;;1.20;;
29876;SDS011;16750;49.002;9.204;2022-08-01T07:44:44;2.50;;;0.93;;
29876;SDS011;16750;49.002;9.204;2022-08-01T07:47:10;1.70;;;0.90;;
29876;SDS011;16750;49.002;9.204;2022-08-01T07:49:35;1.52;;;0.93;;
29876;SDS011;16750;49.002;9.204;2022-08-01T07:52:00;1.38;;;0.80;;
29876;SDS011;16750;49.002;9.204;2022-08-01T07:54:26;2.92;;;1.40;;
29876;SDS011;16750;49.002;9.204;2022-08-01T07:56:53;2.85;;;1.20;;
29876;SDS011;16750;49.002;9.204;2022-08-01T07:59:19;2.75;;;1.00;;
29876;SDS011;16750;49.002;9.204;2022-08-01T08:01:48;2.67;;;1.30;;
29876;SDS011;16750;49.002;9.204;2022-08-01T08:04:16;3.47;;;1.15;;
29876;SDS011;16750;49.002;9.204;2022-08-01T08:06:42;3.95;;;1.42;;
29876;SDS011;16750;49.002;9.204;2022-08-01T08:09:08;2.38;;;1.10;;
29876;SDS011;16750;49.002;9.204;2022-08-01T08:11:33;2.92;;;1.13;;
29876;SDS011;16750;49.002;9.204;2022-08-01T08:13:59;2.75;;;1.25;;
29876;SDS011;16750;49.002;9.204;2022-08-01T08:16:24;1.92;;;1.23;;
29876;SDS011;16750;49.002;9.204;2022-08-01T08:18:49;1.60;;;1.10;;
29876;SDS011;16750;49.002;9.204;2022-08-01T08:21:15;3.13;;;1.20;;
29876;SDS011;16750;49.002;9.204;2022-08-01T08:23:40;3.30;;;1.38;;
29876;SDS011;16750;49.002;9.204;2022-08-01T08:28:51;1.83;;;1.10;;
29876;SDS011;16750;49.002;9.204;2022-08-01T08:31:17;2.08;;;1.02;;
29876;SDS011;16750;49.002;9.204;2022-08-01T08:33:42;2.53;;;1.20;;
29876;SDS011;16750;49.002;9.204;2022-08-01T08:36:07;3.47;;;0.90;;
29876;SDS011;16750;49.002;9.204;2022-08-01T08:38:33;2.72;;;1.08;;
29876;SDS011;16750;49.002;9.204;2022-08-01T08:40:59;3.08;;;1.00;;
29876;SDS011;16750;49.002;9.204;2022-08-01T08:43:24;1.65;;;0.90;;
29876;SDS011;16750;49.002;9.204;2022-08-01T08:45:51;2.65;;;1.20;;
29876;SDS011;16750;49.002;9.204;2022-08-01T08:48:17;2.47;;;1.17;;
29876;SDS011;16750;49.002;9.204;2022-08-01T08:50:43;2.05;;;1.00;;
29876;SDS011;16750;49.002;9.204;2022-08-01T08:53:10;2.90;;;1.20;;
29876;SDS011;16750;49.002;9.204;2022-08-01T08:55:39;4.93;;;1.10;;
29876;SDS011;16750;49.002;9.204;2022-08-01T08:58:09;2.08;;;1.00;;
29876;SDS011;16750;49.002;9.204;2022-08-01T09:00:38;2.97;;;1.00;;
29876;SDS011;16750;49.002;9.204;2022-08-01T09:03:04;1.75;;;0.77;;
29876;SDS011;16750;49.002;9.204;2022-08-01T09:05:29;2.70;;;1.05;;
29876;SDS011;16750;49.002;9.204;2022-08-01T09:07:55;2.33;;;1.08;;
29876;SDS011;16750;49.002;9.204;2022-08-01T09:10:20;2.03;;;1.10;;
29876;SDS011;16750;49.002;9.204;2022-08-01T09:13:02;2.28;;;1.10;;
29876;SDS011;16750;49.002;9.204;2022-08-01T09:15:45;2.17;;;1.20;;
29876;SDS011;16750;49.002;9.204;2022-08-01T09:23:42;2.75;;;0.90;;
29876;SDS011;16750;49.002;9.204;2022-08-01T09:26:11;2.38;;;1.02;;
29876;SDS011;16750;49.002;9.204;2022-08-01T09:28:39;2.08;;;1.08;;
29876;SDS011;16750;49.002;9.204;2022-08-01T09:31:07;2.63;;;1.10;;
29876;SDS011;16750;49.002;9.204;2022-08-01T09:36:22;2.25;;;1.17;;
29876;SDS011;16750;49.002;9.204;2022-08-01T09:38:49;3.08;;;1.20;;
29876;SDS011;16750;49.002;9.204;2022-08-01T09:41:15;2.10;;;1.08;;
29876;SDS011;16750;49.002;9.204;2022-08-01T09:43:47;2.30;;;1.40;;
29876;SDS011;16750;49.002;9.204;2022-08-01T09:46:14;2.67;;;1.27;;
29876;SDS011;16750;49.002;9.204;2022-08-01T09:49:02;2.78;;;1.10;;
29876;SDS011;16750;49.002;9.204;2022-08-01T09:51:31;2.72;;;1.20;;
29876;SDS011;16750;49.002;9.204;2022-08-01T09:54:02;4.35;;;1.33;;
29876;SDS011;16750;49.002;9.204;2022-08-01T09:56:39;2.85;;;1.25;;
29876;SDS011;16750;49.002;9.204;2022-08-01T09:59:08;3.08;;;1.40;;
29876;SDS011;16750;49.002;9.204;2022-08-01T10:01:47;2.88;;;1.40;;
29876;SDS011;16750;49.002;9.204;2022-08-01T10:04:18;2.20;;;1.27;;
29876;SDS011;16750;49.002;9.204;2022-08-01T10:06:45;2.55;;;1.50;;
29876;SDS011;16750;49.002;9.204;2022-08-01T10:09:26;2.30;;;1.40;;
29876;SDS011;16750;49.002;9.204;2022-08-01T10:11:55;2.42;;;1.42;;
29876;SDS011;16750;49.002;9.204;2022-08-01T10:14:25;3.78;;;1.55;;
29876;SDS011;16750;49.002;9.204;2022-08-01T10:16:53;4.40;;;1.33;;
29876;SDS011;16750;49.002;9.204;2022-08-01T10:19:22;4.82;;;1.58;;
29876;SDS011;16750;49.002;9.204;2022-08-01T10:21:48;2.75;;;1.23;;
29876;SDS011;16750;49.002;9.204;2022-08-01T10:24:17;1.70;;;1.33;;
29876;SDS011;16750;49.002;9.204;2022-08-01T10:26:47;3.88;;;1.10;;
29876;SDS011;16750;49.002;9.204;2022-08-01T10:29:17;3.20;;;1.00;;
29876;SDS011;16750;49.002;9.204;2022-08-01T10:31:45;2.50;;;1.08;;
29876;SDS011;16750;49.002;9.204;2022-08-01T10:34:12;2.05;;;1.08;;
29876;SDS011;16750;49.002;9.204;2022-08-01T10:36:45;3.15;;;0.95;;
29876;SDS011;16750;49.002;9.204;2022-08-01T10:39:11;2.22;;;0.80;;
29876;SDS011;16750;49.002;9.204;2022-08-01T10:41:40;1.92;;;1.00;;
29876;SDS011;16750;49.002;9.204;2022-08-01T10:44:06;1.92;;;0.80;;
29876;SDS011;16750;49.002;9.204;2022-08-01T10:46:34;3.00;;;1.15;;
29876;SDS011;16750;49.002;9.204;2022-08-01T10:49:07;2.63;;;1.10;;
29876;SDS011;16750;49.002;9.204;2022-08-01T10:51:39;2.55;;;1.00;;
29876;SDS011;16750;49.002;9.204;2022-08-01T10:54:07;2.47;;;1.23;;
29876;SDS011;16750;49.002;9.204;2022-08-01T10:56:43;2.75;;;1.13;;
29876;SDS011;16750;49.002;9.204;2022-08-01T10:59:09;2.53;;;0.80;;
29876;SDS011;16750;49.002;9.204;2022-08-01T11:01:39;3.17;;;1.00;;
29876;SDS011;16750;49.002;9.204;2022-08-01T11:04:08;3.45;;;0.90;;
29876;SDS011;16750;49.002;9.204;2022-08-01T11:07:02;1.33;;;1.08;;
29876;SDS011;16750;49.002;9.204;2022-08-01T11:09:41;1.17;;;0.90;;
29876;SDS011;16750;49.002;9.204;2022-08-01T11:12:09;2.38;;;1.13;;
29876;SDS011;16750;49.002;9.204;2022-08-01T11:20:03;4.93;;;0.90;;
29876;SDS011;16750;49.002;9.204;2022-08-01T11:25:23;1.48;;;0.88;;
29876;SDS011;16750;49.002;9.204;2022-08-01T11:27:48;2.45;;;0.75;;
29876;SDS011;16750;49.002;9.204;2022-08-01T11:30:46;1.88;;;0.85;;
29876;SDS011;16750;49.002;9.204;2022-08-01T11:33:13;1.00;;;0.80;;
29876;SDS011;16750;49.002;9.204;2022-08-01T11:41:23;3.58;;;1.05;;
29876;SDS011;16750;49.002;9.204;2022-08-01T11:52:13;2.25;;;0.85;;
29876;SDS011;16750;49.002;9.204;2022-08-01T11:54:46;1.20;;;0.70;;
29876;SDS011;16750;49.002;9.204;2022-08-01T11:57:17;1.25;;;0.70;;
29876;SDS011;16750;49.002;9.204;2022-08-01T11:59:48;3.92;;;0.85;;
29876;SDS011;16750;49.002;9.204;2022-08-01T12:02:25;2.78;;;1.02;;
29876;SDS011;16750;49.002;9.204;2022-08-01T12:04:59;3.17;;;1.10;;
29876;SDS011;16750;49.002;9.204;2022-08-01T12:07:27;1.65;;;1.10;;
29876;SDS011;16750;49.002;9.204;2022-08-01T12:12:35;2.85;;;1.00;;
29876;SDS011;16750;49.002;9.204;2022-08-01T12:15:02;3.25;;;1.10;;
29876;SDS011;16750;49.002;9.204;2022-08-01T12:17:31;3.80;;;1.10;;
29876;SDS011;16750;49.002;9.204;2022-08-01T12:20:01;3.78;;;1.17;;
29876;SDS011;16750;49.002;9.204;2022-08-01T12:22:28;2.83;;;1.10;;
29876;SDS011;16750;49.002;9.204;2022-08-01T12:24:54;1.40;;;0.88;;
29876;SDS011;16750;49.002;9.204;2022-08-01T12:27:24;1.83;;;0.95;;
29876;SDS011;16750;49.002;9.204;2022-08-01T12:29:51;1.80;;;0.80;;
29876;SDS011;16750;49.002;9.204;2022-08-01T12:32:23;2.13;;;1.00;;
29876;SDS011;16750;49.002;9.204;2022-08-01T12:34:51;1.67;;;0.80;;
29876;SDS011;16750;49.002;9.204;2022-08-01T12:37:17;2.85;;;1.00;;
29876;SDS011;16750;49.002;9.204;2022-08-01T12:39:43;2.35;;;0.90;;
29876;SDS011;16750;49.002;9.204;2022-08-01T12:42:10;3.22;;;1.00;;
29876;SDS011;16750;49.002;9.204;2022-08-01T12:44:36;1.85;;;0.80;;
29876;SDS011;16750;49.002;9.204;2022-08-01T12:47:03;2.92;;;0.88;;
29876;SDS011;16750;49.002;9.204;2022-08-01T12:49:31;1.30;;;0.80;;
29876;SDS011;16750;49.002;9.204;2022-08-01T12:51:57;2.85;;;1.00;;
29876;SDS011;16750;49.002;9.204;2022-08-01T12:54:23;2.17;;;1.10;;
29876;SDS011;16750;49.002;9.204;2022-08-01T12:56:50;2.47;;;0.95;;
29876;SDS011;16750;49.002;9.204;2022-08-01T12:59:28;3.00;;;1.00;;
29876;SDS011;16750;49.002;9.204;2022-08-01T13:01:56;1.80;;;0.98;;
29876;SDS011;16750;49.002;9.204;2022-08-01T13:04:33;1.60;;;0.90;;
29876;SDS011;16750;49.002;9.204;2022-08-01T13:07:15;1.13;;;0.88;;
29876;SDS011;16750;49.002;9.204;2022-08-01T13:09:50;1.40;;;0.73;;
29876;SDS011;16750;49.002;9.204;2022-08-01T13:12:16;1.55;;;0.90;;
29876;SDS011;16750;49.002;9.204;2022-08-01T13:14:41;2.05;;;0.90;;
29876;SDS011;16750;49.002;9.204;2022-08-01T13:17:07;2.25;;;1.00;;
29876;SDS011;16750;49.002;9.204;2022-08-01T13:19:44;3.70;;;0.82;;
29876;SDS011;16750;49.002;9.204;2022-08-01T13:22:12;2.92;;;0.98;;
29876;SDS011;16750;49.002;9.204;2022-08-01T13:24:37;6.00;;;1.05;;
29876;SDS011;16750;49.002;9.204;2022-08-01T13:27:03;3.28;;;0.80;;
29876;SDS011;16750;49.002;9.204;2022-08-01T13:29:32;10.88;;;1.40;;
29876;SDS011;16750;49.002;9.204;2022-08-01T13:32:14;8.30;;;1.45;;
29876;SDS011;16750;49.002;9.204;2022-08-01T13:34:44;3.83;;;0.98;;
29876;SDS011;16750;49.002;9.204;2022-08-01T13:37:10;2.72;;;1.20;;
29876;SDS011;16750;49.002;9.204;2022-08-01T13:39:35;2.15;;;0.90;;
29876;SDS011;16750;49.002;9.204;2022-08-01T13:42:07;1.95;;;0.82;;
29876;SDS011;16750;49.002;9.204;2022-08-01T13:44:33;3.38;;;0.88;;
29876;SDS011;16750;49.002;9.204;2022-08-01T13:46:59;2.08;;;0.80;;
29876;SDS011;16750;49.002;9.204;2022-08-01T13:49:24;2.88;;;0.93;;
29876;SDS011;16750;49.002;9.204;2022-08-01T13:51:50;2.85;;;0.95;;
29876;SDS011;16750;49.002;9.204;2022-08-01T13:54:15;1.50;;;0.90;;
29876;SDS011;16750;49.002;9.204;2022-08-01T13:56:41;3.97;;;1.20;;
29876;SDS011;16750;49.002;9.204;2022-08-01T13:59:07;2.17;;;1.00;;
29876;SDS011;16750;49.002;9.204;2022-08-01T14:01:33;1.50;;;0.88;;
29876;SDS011;16750;49.002;9.204;2022-08-01T14:03:58;3.42;;;1.20;;
29876;SDS011;16750;49.002;9.204;2022-08-01T14:06:24;2.80;;;1.00;;
29876;SDS011;16750;49.002;9.204;2022-08-01T14:08:50;5.03;;;1.00;;
29876;SDS011;16750;49.002;9.204;2022-08-01T14:11:15;2.00;;;0.93;;
29876;SDS011;16750;49.002;9.204;2022-08-01T14:13:41;1.75;;;1.00;;
29876;SDS011;16750;49.002;9.204;2022-08-01T14:16:07;3.10;;;1.30;;
29876;SDS011;16750;49.002;9.204;2022-08-01T14:18:32;2.15;;;1.02;;
29876;SDS011;16750;49.002;9.204;2022-08-01T14:20:58;3.70;;;1.23;;
29876;SDS011;16750;49.002;9.204;2022-08-01T14:23:24;1.92;;;1.00;;
29876;SDS011;16750;49.002;9.204;2022-08-01T14:25:50;3.28;;;0.93;;
29876;SDS011;16750;49.002;9.204;2022-08-01T14:28:16;2.75;;;1.00;;
29876;SDS011;16750;49.002;9.204;2022-08-01T14:30:41;3.95;;;1.25;;
29876;SDS011;16750;49.002;9.204;2022-08-01T14:33:07;5.35;;;1.30;;
29876;SDS011;16750;49.002;9.204;2022-08-01T14:35:33;1.58;;;1.10;;
29876;SDS011;16750;49.002;9.204;2022-08-01T14:37:59;2.13;;;1.02;;
29876;SDS011;16750;49.002;9.204;2022-08-01T14:40:24;2.92;;;0.98;;
29876;SDS011;16750;49.002;9.204;2022-08-01T14:42:50;3.30;;;0.93;;
29876;SDS011;16750;49.002;9.204;2022-08-01T14:45:15;2.88;;;0.98;;
29876;SDS011;16750;49.002;9.204;2022-08-01T14:47:43;3.67;;;0.80;;
29876;SDS011;16750;49.002;9.204;2022-08-01T14:50:09;2.20;;;0.93;;
29876;SDS011;16750;49.002;9.204;2022-08-01T14:52:37;2.15;;;0.80;;
29876;SDS011;16750;49.002;9.204;2022-08-01T14:55:04;1.60;;;0.93;;
29876;SDS011;16750;49.002;9.204;2022-08-01T14:57:30;1.77;;;0.90;;
29876;SDS011;16750;49.002;9.204;2022-08-01T14:59:56;2.20;;;1.13;;
29876;SDS011;16750;49.002;9.204;2022-08-01T15:02:22;3.25;;;1.00;;
29876;SDS011;16750;49.002;9.204;2022-08-01T15:04:48;1.38;;;0.85;;
29876;SDS011;16750;49.002;9.204;2022-08-01T15:07:14;1.98;;;0.80;;
29876;SDS011;16750;49.002;9.204;2022-08-01T15:09:40;1.60;;;0.90;;
29876;SDS011;16750;49.002;9.204;2022-08-01T15:12:06;1.80;;;0.90;;
29876;SDS011;16750;49.002;9.204;2022-08-01T15:14:32;3.20;;;0.88;;
29876;SDS011;16750;49.002;9.204;2022-08-01T15:17:12;1.35;;;0.70;;
29876;SDS011;16750;49.002;9.204;2022-08-01T15:19:39;2.15;;;0.95;;
29876;SDS011;16750;49.002;9.204;2022-08-01T15:22:04;3.15;;;0.88;;
29876;SDS011;16750;49.002;9.204;2022-08-01T15:24:30;2.08;;;0.88;;
29876;SDS011;16750;49.002;9.204;2022-08-01T15:26:56;3.05;;;0.80;;
29876;SDS011;16750;49.002;9.204;2022-08-01T15:29:21;2.28;;;0.70;;
29876;SDS011;16750;49.002;9.204;2022-08-01T15:31:46;1.67;;;0.70;;
29876;SDS011;16750;49.002;9.204;2022-08-01T15:34:12;1.15;;;0.60;;
29876;SDS011;16750;49.002;9.204;2022-08-01T15:36:37;2.97;;;0.80;;